Time;durP1;ratioP1;P1;durP2;ratioP2;P2;SDS_P1;SDS_P2;PMS_P1;PMS_P2;Temp;Humidity;BMP_temperature;BMP_pressure;BME280_temperature;BME280_humidity;BME280_pressure;Samples;Min_cycle;Max_cycle;Signal;HPM_P1;HPM_P2
2022/01/04 00:02:15;;;;;;;1.10;1.00;;;-2.30;99.90;;;;;;4935038;29;20047;-74
2022/01/04 00:04:40;;;;;;;0.80;0.80;;;-2.30;99.90;;;;;;4935083;29;20087;-74
2022/01/04 00:07:06;;;;;;;0.95;0.90;;;-2.30;99.90;;;;;;4935430;29;20083;-75
2022/01/04 00:09:34;;;;;;;1.25;1.15;;;-2.30;99.90;;;;;;4935434;29;20489;-75
2022/01/04 00:13:22;;;;;;;2.55;0.95;;;-2.30;99.90;;;;;;4935197;29;20053;-73
2022/01/04 00:14:46;;;;;;;1.10;1.10;;;-2.30;99.90;;;;;;4935047;29;20038;-74
2022/01/04 00:17:12;;;;;;;1.15;1.10;;;-2.30;99.90;;;;;;4935034;29;20055;-73
2022/01/04 00:19:38;;;;;;;0.80;0.80;;;-2.20;99.90;;;;;;4935139;29;20020;-73
2022/01/04 00:22:06;;;;;;;1.52;1.00;;;-2.30;99.90;;;;;;4934809;29;20071;-73
2022/01/04 00:24:31;;;;;;;1.08;1.00;;;-2.30;99.90;;;;;;4935188;29;20166;-73
2022/01/04 00:26:57;;;;;;;2.30;0.90;;;-2.30;99.90;;;;;;4933524;29;20519;-73
2022/01/04 00:29:23;;;;;;;1.33;1.00;;;-2.30;99.90;;;;;;4934980;29;20023;-73
2022/01/04 00:31:48;;;;;;;1.20;1.10;;;-2.30;99.90;;;;;;4934752;29;20480;-73
2022/01/04 00:34:14;;;;;;;2.33;1.08;;;-2.30;99.90;;;;;;4934853;29;20108;-74
2022/01/04 00:36:40;;;;;;;0.93;0.93;;;-2.30;99.90;;;;;;4934663;29;20529;-74
2022/01/04 00:39:06;;;;;;;0.93;0.93;;;-2.30;99.90;;;;;;4934680;29;20039;-74
2022/01/04 00:41:31;;;;;;;1.45;1.13;;;-2.30;99.90;;;;;;4934972;29;20086;-74
2022/01/04 00:43:57;;;;;;;1.58;1.20;;;-2.30;99.90;;;;;;4934585;29;20503;-74
2022/01/04 00:46:23;;;;;;;1.30;1.00;;;-2.30;99.90;;;;;;4934736;29;20027;-74
2022/01/04 00:51:33;;;;;;;1.45;0.90;;;-2.30;99.90;;;;;;4935549;29;20090;-73
2022/01/04 00:53:59;;;;;;;1.20;1.10;;;-2.40;99.90;;;;;;4938518;29;20024;-73
2022/01/04 00:56:24;;;;;;;1.20;1.10;;;-2.40;99.90;;;;;;4938856;29;20028;-73
2022/01/04 00:58:50;;;;;;;0.95;0.95;;;-2.40;99.90;;;;;;4938681;29;20488;-74
2022/01/04 01:01:16;;;;;;;0.93;0.93;;;-2.30;99.90;;;;;;4938746;29;20050;-74
2022/01/04 01:03:42;;;;;;;1.50;1.05;;;-2.40;99.90;;;;;;4938544;29;20027;-74
2022/01/04 01:06:09;;;;;;;1.10;1.00;;;-2.30;99.90;;;;;;4938651;29;20019;-74
2022/01/04 01:08:35;;;;;;;2.28;1.20;;;-2.40;99.90;;;;;;4938258;29;20036;-74
2022/01/04 01:11:01;;;;;;;1.05;1.00;;;-2.40;99.90;;;;;;4938222;29;20404;-75
2022/01/04 01:13:27;;;;;;;2.05;1.23;;;-2.40;99.90;;;;;;4938174;29;20024;-71
2022/01/04 01:15:52;;;;;;;1.30;1.20;;;-2.40;99.90;;;;;;4938368;29;20032;-72
2022/01/04 01:18:18;;;;;;;2.00;1.20;;;-2.40;99.90;;;;;;4938096;29;20031;-72
2022/01/04 01:20:48;;;;;;;1.10;1.10;;;-2.40;99.90;;;;;;4938258;29;20031;-72
2022/01/04 01:23:14;;;;;;;1.60;1.27;;;-2.40;99.90;;;;;;4936749;29;20059;-72
2022/01/04 01:25:39;;;;;;;1.02;1.00;;;-2.40;99.90;;;;;;4937893;29;20066;-72
2022/01/04 01:28:05;;;;;;;1.08;0.90;;;-2.40;99.90;;;;;;4937931;29;20039;-72
2022/01/04 01:30:35;;;;;;;1.08;1.00;;;-2.40;99.90;;;;;;4938247;29;20028;-72
2022/01/04 01:33:00;;;;;;;1.58;1.30;;;-2.40;99.90;;;;;;4936567;29;20024;-72
2022/01/04 01:35:26;;;;;;;1.55;1.40;;;-2.40;99.90;;;;;;4937879;29;20024;-71
2022/01/04 01:37:52;;;;;;;1.50;1.40;;;-2.40;99.90;;;;;;4937822;29;20063;-71
2022/01/04 01:40:18;;;;;;;1.30;1.20;;;-2.40;99.90;;;;;;4937606;29;20389;-71
2022/01/04 01:42:44;;;;;;;3.35;1.17;;;-2.40;99.90;;;;;;4937435;29;20042;-71
2022/01/04 01:45:11;;;;;;;1.25;1.10;;;-2.40;99.90;;;;;;4937705;29;20031;-71
2022/01/04 01:47:40;;;;;;;1.20;1.10;;;-2.40;99.90;;;;;;4937717;29;20024;-71
2022/01/04 01:50:07;;;;;;;2.15;1.33;;;-2.40;99.90;;;;;;4937522;29;20059;-70
2022/01/04 01:52:33;;;;;;;1.55;1.13;;;-2.40;99.90;;;;;;4937489;29;20028;-71
2022/01/04 01:54:58;;;;;;;2.13;1.00;;;-2.40;99.90;;;;;;4937636;29;20365;-72
2022/01/04 01:57:24;;;;;;;3.72;1.17;;;-2.40;99.90;;;;;;4937419;29;20030;-72
2022/01/04 01:59:50;;;;;;;1.65;1.10;;;-2.50;99.90;;;;;;4937384;29;20024;-72
2022/01/04 02:02:16;;;;;;;1.92;0.80;;;-2.50;99.90;;;;;;4936944;29;20467;-72
2022/01/04 02:04:42;;;;;;;1.20;0.80;;;-2.50;99.90;;;;;;4937293;29;20543;-72
2022/01/04 02:07:09;;;;;;;0.90;0.90;;;-2.60;99.90;;;;;;4936240;29;20050;-72
2022/01/04 02:09:39;;;;;;;1.27;0.93;;;-2.60;99.90;;;;;;4937643;29;20035;-72
2022/01/04 02:12:06;;;;;;;1.33;1.20;;;-2.50;99.90;;;;;;4937445;29;20035;-69
2022/01/04 02:14:32;;;;;;;0.90;0.90;;;-2.50;99.90;;;;;;4937137;29;20422;-69
2022/01/04 02:16:57;;;;;;;0.77;0.77;;;-2.60;99.90;;;;;;4937004;29;20032;-69
2022/01/04 02:19:23;;;;;;;2.50;1.15;;;-2.60;99.90;;;;;;4937256;29;20028;-69
2022/01/04 02:21:49;;;;;;;1.58;0.90;;;-2.60;99.90;;;;;;4936886;29;20392;-69
2022/01/04 02:24:15;;;;;;;1.15;0.88;;;-2.60;99.90;;;;;;4936921;29;20032;-69
2022/01/04 02:53:19;;;;;;;1.05;1.05;;;-2.70;99.90;;;;;;4935742;29;20043;-69
2022/01/04 02:55:47;;;;;;;1.17;1.08;;;-2.70;99.90;;;;;;4936365;29;20028;-71
2022/01/04 02:58:14;;;;;;;1.50;1.23;;;-2.70;99.90;;;;;;4936139;29;20075;-73
2022/01/04 03:00:40;;;;;;;2.15;1.35;;;-2.70;99.90;;;;;;4936326;29;20083;-73
2022/01/04 03:03:05;;;;;;;3.78;1.00;;;-2.70;99.90;;;;;;4935977;29;20036;-73
2022/01/04 03:36:48;;;;;;;1.20;1.10;;;-2.80;99.90;;;;;;5998533;23;20010;-74
2022/01/04 03:39:14;;;;;;;0.82;0.82;;;-2.80;99.90;;;;;;4931588;29;20048;-74
2022/01/04 03:41:43;;;;;;;1.75;0.90;;;-2.80;99.90;;;;;;4935766;29;20440;-74
2022/01/04 03:44:14;;;;;;;0.90;0.90;;;-2.80;99.90;;;;;;4935773;29;20467;-74
2022/01/04 03:46:39;;;;;;;2.65;1.00;;;-2.80;99.90;;;;;;4934154;29;20039;-74
2022/01/04 03:49:05;;;;;;;1.35;1.10;;;-2.80;99.90;;;;;;4934165;29;20030;-75
2022/01/04 03:51:32;;;;;;;0.90;0.90;;;-2.80;99.90;;;;;;4935401;29;20028;-73
2022/01/04 03:53:57;;;;;;;0.95;0.95;;;-2.90;99.90;;;;;;4935364;29;20083;-73
2022/01/04 03:56:23;;;;;;;1.00;1.00;;;-2.80;99.90;;;;;;4935241;29;20036;-73
2022/01/04 03:58:49;;;;;;;1.20;1.05;;;-2.80;99.90;;;;;;4935210;29;20026;-73
2022/01/04 04:01:15;;;;;;;1.42;1.00;;;-2.80;99.90;;;;;;4935255;29;20032;-74
2022/01/04 04:03:41;;;;;;;1.10;1.00;;;-2.90;99.90;;;;;;4935395;29;20027;-74
2022/01/04 04:06:07;;;;;;;1.00;1.00;;;-2.90;99.90;;;;;;4935500;29;20475;-74
2022/01/04 04:08:33;;;;;;;1.10;1.10;;;-2.80;99.90;;;;;;4934988;29;20518;-74
2022/01/04 04:10:58;;;;;;;1.35;1.10;;;-2.80;99.90;;;;;;4935122;29;20028;-74
2022/01/04 04:13:24;;;;;;;1.33;1.00;;;-2.90;99.90;;;;;;4934912;29;20075;-74
2022/01/04 04:15:50;;;;;;;0.93;0.90;;;-2.80;99.90;;;;;;4935152;29;20160;-74
2022/01/04 04:18:17;;;;;;;1.63;1.10;;;-2.80;99.90;;;;;;4935217;29;20035;-74
2022/01/04 04:20:43;;;;;;;1.20;1.10;;;-2.80;99.90;;;;;;4933761;29;20035;-74
2022/01/04 04:23:10;;;;;;;1.70;1.00;;;-2.80;99.90;;;;;;4934897;29;20035;-73
2022/01/04 04:25:36;;;;;;;1.38;1.10;;;-2.90;99.90;;;;;;4934667;29;20019;-72
2022/01/04 04:28:01;;;;;;;2.15;1.10;;;-2.90;99.90;;;;;;4934851;29;20038;-73
2022/01/04 04:30:27;;;;;;;1.00;1.00;;;-2.90;99.90;;;;;;4934759;29;20020;-73
2022/01/04 04:32:53;;;;;;;1.45;1.23;;;-2.90;99.90;;;;;;4934851;29;20079;-73
2022/01/04 04:35:19;;;;;;;1.42;1.00;;;-2.90;99.90;;;;;;4934870;29;20140;-73
2022/01/04 04:37:45;;;;;;;1.35;1.25;;;-2.90;99.90;;;;;;4933440;29;20153;-73
2022/01/04 04:40:11;;;;;;;1.33;1.00;;;-2.90;99.90;;;;;;4935125;29;20526;-73
2022/01/04 04:42:37;;;;;;;2.25;1.17;;;-2.80;99.90;;;;;;4934509;29;20040;-73
2022/01/04 04:45:03;;;;;;;1.67;1.10;;;-2.90;99.90;;;;;;4934844;29;20027;-73
2022/01/04 04:47:29;;;;;;;3.63;1.30;;;-2.90;99.90;;;;;;4934903;29;20031;-73
2022/01/04 04:49:55;;;;;;;1.58;1.10;;;-2.80;99.90;;;;;;4934727;29;20475;-72
2022/01/04 04:52:21;;;;;;;1.10;1.10;;;-2.80;99.90;;;;;;4934665;29;20035;-74
2022/01/04 04:54:48;;;;;;;1.08;1.08;;;-2.90;99.90;;;;;;4934764;29;20024;-72
2022/01/04 04:57:14;;;;;;;1.83;0.90;;;-2.90;99.90;;;;;;4934812;29;20032;-72
2022/01/04 04:59:39;;;;;;;3.53;1.27;;;-2.90;99.90;;;;;;4934587;29;20064;-72
2022/01/04 05:02:07;;;;;;;1.67;1.08;;;-2.90;99.90;;;;;;4934938;29;20078;-72
2022/01/04 05:04:34;;;;;;;2.33;1.10;;;-2.90;99.90;;;;;;4934513;29;20031;-72
2022/01/04 05:06:59;;;;;;;1.00;1.00;;;-3.00;99.90;;;;;;4934611;29;20476;-72
2022/01/04 05:09:25;;;;;;;1.60;1.00;;;-2.90;99.90;;;;;;4934334;29;20086;-72
2022/01/04 05:11:51;;;;;;;2.55;0.77;;;-2.90;99.90;;;;;;4934533;29;20531;-72
2022/01/04 05:14:17;;;;;;;0.80;0.80;;;-2.90;99.90;;;;;;4934499;29;20496;-72
2022/01/04 05:16:43;;;;;;;1.08;0.98;;;-2.80;99.90;;;;;;4934298;29;20035;-74
2022/01/04 05:19:08;;;;;;;1.13;1.02;;;-2.80;99.90;;;;;;4934338;29;20027;-74
2022/01/04 05:21:34;;;;;;;1.20;1.10;;;-2.80;99.90;;;;;;4934122;29;20038;-74
2022/01/04 05:24:00;;;;;;;1.27;1.10;;;-2.90;99.90;;;;;;4934369;29;20032;-75
2022/01/04 05:26:25;;;;;;;1.48;1.15;;;-2.90;99.90;;;;;;4934496;29;20028;-74
2022/01/04 05:28:51;;;;;;;0.90;0.90;;;-2.90;99.90;;;;;;4934306;29;20063;-74
2022/01/04 05:31:17;;;;;;;0.90;0.90;;;-2.90;99.90;;;;;;4934367;29;20024;-72
2022/01/04 05:33:43;;;;;;;1.15;1.05;;;-2.90;99.90;;;;;;4934269;29;20051;-74
2022/01/04 05:36:09;;;;;;;1.00;1.00;;;-2.90;99.90;;;;;;4933095;29;20032;-69
2022/01/04 05:38:34;;;;;;;1.25;0.90;;;-2.90;99.90;;;;;;4935593;29;20075;-71
2022/01/04 05:41:00;;;;;;;1.52;1.02;;;-2.90;99.90;;;;;;4937413;29;20030;-69
2022/01/04 05:43:26;;;;;;;1.05;1.00;;;-2.80;99.90;;;;;;4937305;29;20044;-70
2022/01/04 05:45:52;;;;;;;1.80;1.20;;;-2.70;99.90;;;;;;4936889;29;20038;-70
2022/01/04 05:48:20;;;;;;;2.58;0.95;;;-2.70;99.90;;;;;;4937030;29;20032;-70
2022/01/04 05:50:49;;;;;;;2.17;1.00;;;-2.70;99.90;;;;;;4937090;29;20059;-73
2022/01/04 05:53:15;;;;;;;1.13;1.02;;;-2.80;99.90;;;;;;4936961;29;20043;-70
2022/01/04 05:55:40;;;;;;;1.40;1.30;;;-2.80;99.90;;;;;;4936748;29;20027;-68
2022/01/04 05:58:06;;;;;;;1.20;1.00;;;-2.80;99.90;;;;;;4937125;29;20074;-72
2022/01/04 06:00:32;;;;;;;1.17;1.00;;;-2.90;99.90;;;;;;4936833;29;20542;-69
2022/01/04 06:03:00;;;;;;;0.95;0.95;;;-2.80;99.90;;;;;;4936600;29;20036;-68
2022/01/04 06:05:29;;;;;;;0.88;0.88;;;-2.80;99.90;;;;;;4936554;29;20031;-68
2022/01/04 06:07:55;;;;;;;1.08;1.00;;;-2.90;99.90;;;;;;4937437;29;20067;-69
2022/01/04 06:10:21;;;;;;;1.65;0.98;;;-2.90;99.90;;;;;;4936140;29;20047;-68
2022/01/04 06:15:16;;;;;;;1.40;1.30;;;-2.80;99.90;;;;;;4937137;29;20032;-70
2022/01/04 06:17:44;;;;;;;1.25;1.10;;;-2.80;99.90;;;;;;4936029;29;20387;-70
2022/01/04 06:20:13;;;;;;;1.33;1.17;;;-2.70;99.90;;;;;;4937186;29;20031;-69
2022/01/04 06:22:39;;;;;;;1.10;1.00;;;-2.70;99.90;;;;;;4936661;29;20043;-69
2022/01/04 06:25:07;;;;;;;2.17;1.00;;;-2.70;99.90;;;;;;4936576;29;20028;-69
2022/01/04 06:27:34;;;;;;;1.00;1.00;;;-2.70;99.90;;;;;;4936204;29;20042;-69
2022/01/04 06:30:00;;;;;;;1.58;1.15;;;-2.70;99.90;;;;;;4936623;29;20427;-68
2022/01/04 06:32:26;;;;;;;1.35;1.10;;;-2.60;99.90;;;;;;4936755;29;20028;-69
2022/01/04 06:34:52;;;;;;;2.78;0.90;;;-2.60;99.90;;;;;;4936760;29;20034;-70
2022/01/04 06:37:18;;;;;;;1.83;1.00;;;-2.60;99.90;;;;;;4936538;29;20063;-71
2022/01/04 06:39:45;;;;;;;1.70;0.90;;;-2.70;99.90;;;;;;4936474;29;20031;-71
2022/01/04 06:42:14;;;;;;;1.20;1.10;;;-2.70;99.90;;;;;;4936701;29;20032;-71
2022/01/04 06:44:43;;;;;;;1.13;0.90;;;-2.70;99.90;;;;;;4935201;29;20032;-71
2022/01/04 06:47:09;;;;;;;1.67;1.33;;;-2.70;99.90;;;;;;4936493;29;20034;-71
2022/01/04 06:49:35;;;;;;;1.75;0.90;;;-2.70;99.90;;;;;;4935440;29;20030;-71
2022/01/04 06:52:01;;;;;;;2.40;1.10;;;-2.70;99.90;;;;;;4936488;29;20027;-70
2022/01/04 06:54:26;;;;;;;2.10;0.85;;;-2.60;99.90;;;;;;4935031;29;20031;-68
2022/01/04 06:56:52;;;;;;;1.58;0.85;;;-2.60;99.90;;;;;;4934355;29;20035;-68
2022/01/04 06:59:18;;;;;;;0.95;0.95;;;-2.70;99.90;;;;;;4936004;29;20070;-68
2022/01/04 07:01:45;;;;;;;1.10;1.00;;;-2.70;99.90;;;;;;4928766;29;20036;-71
2022/01/04 07:04:11;;;;;;;1.73;0.90;;;-2.70;99.90;;;;;;4917051;29;20477;-69
2022/01/04 07:06:37;;;;;;;1.05;0.90;;;-2.70;99.90;;;;;;4916719;29;20395;-69
2022/01/04 07:09:04;;;;;;;3.08;1.00;;;-2.70;99.90;;;;;;4917167;29;20040;-69
2022/01/04 07:11:30;;;;;;;1.10;0.75;;;-2.70;99.90;;;;;;4917174;29;20035;-68
2022/01/04 07:13:55;;;;;;;0.90;0.90;;;-2.70;99.90;;;;;;4924338;29;20027;-69
2022/01/04 07:16:21;;;;;;;0.77;0.77;;;-2.70;99.90;;;;;;4935514;29;20066;-70
2022/01/04 07:18:49;;;;;;;1.38;1.00;;;-2.70;99.90;;;;;;4935359;29;20061;-67
2022/01/04 07:21:19;;;;;;;0.80;0.73;;;-2.70;99.90;;;;;;4934861;29;20020;-69
2022/01/04 07:23:46;;;;;;;;;;;-2.70;99.90;;;;;;4936302;29;20031;-69
2022/01/04 07:26:14;;;;;;;3.38;1.10;;;-2.70;99.90;;;;;;4936122;29;19914;-68
2022/01/04 07:28:45;;;;;;;2.80;1.33;;;-2.70;99.90;;;;;;4935807;29;20028;-70
2022/01/04 07:31:11;;;;;;;2.33;1.40;;;-2.70;99.90;;;;;;4934684;29;20387;-69
2022/01/04 07:33:38;;;;;;;1.55;1.10;;;-2.80;99.90;;;;;;4935595;29;20027;-69
2022/01/04 07:36:06;;;;;;;1.52;1.10;;;-2.80;99.90;;;;;;4935706;29;20055;-69
2022/01/04 07:38:33;;;;;;;1.00;1.00;;;-2.70;99.90;;;;;;4935120;29;20052;-70
2022/01/04 07:40:59;;;;;;;2.03;1.00;;;-2.70;99.90;;;;;;4935168;29;20479;-69
2022/01/04 07:43:24;;;;;;;1.00;0.90;;;-2.80;99.90;;;;;;4935068;29;20087;-69
2022/01/04 07:45:50;;;;;;;1.63;0.90;;;-2.80;99.90;;;;;;4935640;29;20059;-70
2022/01/04 07:48:16;;;;;;;0.90;0.90;;;-2.80;99.90;;;;;;4935177;29;20038;-69
2022/01/04 07:50:42;;;;;;;1.20;1.10;;;-2.80;99.90;;;;;;4935099;29;20023;-68
2022/01/04 07:53:08;;;;;;;1.10;1.00;;;-2.80;99.90;;;;;;4935077;29;20383;-69
2022/01/04 07:55:35;;;;;;;1.58;1.00;;;-2.80;99.90;;;;;;4935069;29;20534;-69
2022/01/04 07:58:01;;;;;;;2.10;1.00;;;-2.70;99.90;;;;;;4935200;29;20478;-69
2022/01/04 08:00:27;;;;;;;2.50;0.85;;;-2.70;99.90;;;;;;4934663;29;20032;-69
2022/01/04 08:02:54;;;;;;;3.33;1.08;;;-2.70;99.90;;;;;;4935072;29;20070;-69
2022/01/04 08:05:22;;;;;;;1.15;0.90;;;-2.60;99.90;;;;;;4935132;29;20074;-76
2022/01/04 08:07:47;;;;;;;1.30;1.10;;;-2.60;99.90;;;;;;4933909;29;20419;-75
2022/01/04 08:10:14;;;;;;;0.95;0.95;;;-2.60;99.90;;;;;;4933944;29;20024;-76
2022/01/04 08:12:40;;;;;;;0.98;0.98;;;-2.40;99.90;;;;;;4934019;29;20036;-77
2022/01/04 08:15:07;;;;;;;0.90;0.90;;;-2.20;99.90;;;;;;4934639;29;20028;-76
2022/01/04 08:17:33;;;;;;;0.80;0.80;;;-2.10;99.90;;;;;;4934628;29;20027;-76
2022/01/04 08:20:00;;;;;;;1.05;1.00;;;-2.10;99.90;;;;;;4931393;29;20034;-75
2022/01/04 08:22:32;;;;;;;2.72;1.17;;;-2.00;99.90;;;;;;4946076;29;20066;-77
2022/01/04 08:25:01;;;;;;;2.45;1.00;;;-1.70;99.90;;;;;;4932572;29;20555;-77
2022/01/04 08:27:27;;;;;;;0.73;0.73;;;-1.70;99.90;;;;;;4934698;29;20631;-77
2022/01/04 08:29:53;;;;;;;1.25;1.02;;;-1.40;99.90;;;;;;4934256;29;20020;-78
2022/01/04 08:32:19;;;;;;;0.77;0.77;;;-1.40;99.90;;;;;;4934654;29;20401;-71
2022/01/04 08:34:45;;;;;;;0.70;0.70;;;-1.50;99.90;;;;;;4934227;29;20078;-73
2022/01/04 08:37:11;;;;;;;0.70;0.70;;;-1.70;99.90;;;;;;4933862;29;20043;-73
2022/01/04 08:39:38;;;;;;;1.58;0.90;;;-1.90;99.90;;;;;;4933931;29;20496;-72
2022/01/04 08:42:04;;;;;;;1.10;0.85;;;-2.10;99.90;;;;;;4934824;29;20049;-71
2022/01/04 08:44:31;;;;;;;0.90;0.90;;;-2.20;99.90;;;;;;4933343;29;20110;-72
2022/01/04 08:46:57;;;;;;;2.30;0.80;;;-2.30;99.90;;;;;;4934653;29;20480;-72
2022/01/04 08:49:23;;;;;;;0.88;0.88;;;-2.40;99.90;;;;;;4934738;29;20091;-72
2022/01/04 08:51:48;;;;;;;1.58;0.80;;;-2.40;99.90;;;;;;4934515;29;20024;-72
2022/01/04 08:54:15;;;;;;;0.90;0.80;;;-2.30;99.90;;;;;;4934530;29;20059;-76
2022/01/04 08:56:42;;;;;;;1.85;0.93;;;-2.30;99.90;;;;;;4934357;29;20027;-74
2022/01/04 08:59:09;;;;;;;1.50;0.80;;;-2.30;99.90;;;;;;4933113;29;20399;-79
2022/01/04 09:01:36;;;;;;;0.98;0.90;;;-2.10;99.90;;;;;;4934412;29;20035;-81
2022/01/04 09:04:03;;;;;;;0.88;0.85;;;-1.70;99.90;;;;;;4934699;29;20090;-76
2022/01/04 09:06:29;;;;;;;1.40;0.80;;;-1.90;99.90;;;;;;4934099;29;20039;-75
2022/01/04 09:08:56;;;;;;;0.80;0.80;;;-2.10;99.90;;;;;;4933443;29;20028;-73
2022/01/04 09:11:25;;;;;;;2.22;0.93;;;-2.30;99.90;;;;;;4934539;29;20476;-72
2022/01/04 09:14:00;;;;;;;1.20;0.80;;;-2.40;99.90;;;;;;4936772;29;20035;-72
2022/01/04 09:19:11;;;;;;;0.90;0.90;;;-2.50;99.90;;;;;;4938505;29;20518;-70
2022/01/04 09:21:37;;;;;;;1.33;0.80;;;-2.60;99.90;;;;;;4938216;29;20032;-69
2022/01/04 09:24:05;;;;;;;1.05;0.90;;;-2.60;99.90;;;;;;4937790;29;20561;-69
2022/01/04 09:26:31;;;;;;;1.77;0.90;;;-2.70;99.90;;;;;;4937965;29;20111;-69
2022/01/04 09:28:57;;;;;;;1.60;0.90;;;-1.90;99.90;;;;;;4937735;29;20111;-69
2022/01/04 09:31:25;;;;;;;0.98;0.98;;;-2.10;99.90;;;;;;4938198;29;20031;-69
2022/01/04 09:33:53;;;;;;;0.90;0.90;;;-2.30;99.90;;;;;;4937798;29;20403;-69
2022/01/04 09:36:18;;;;;;;2.90;1.00;;;-2.40;99.90;;;;;;4938112;29;20032;-69
2022/01/04 09:38:44;;;;;;;1.25;1.10;;;-2.50;99.90;;;;;;4936324;29;20448;-69
2022/01/04 09:41:10;;;;;;;1.52;1.02;;;-2.50;99.90;;;;;;4937811;29;20083;-69
2022/01/04 09:43:36;;;;;;;1.75;1.25;;;-2.50;99.90;;;;;;4937519;29;20082;-69
2022/01/04 09:46:03;;;;;;;1.25;1.15;;;-2.50;99.90;;;;;;4937645;29;20047;-69
2022/01/04 09:48:29;;;;;;;0.80;0.80;;;-2.40;99.90;;;;;;4937606;29;20034;-69
2022/01/04 09:50:57;;;;;;;1.20;1.10;;;-2.50;99.90;;;;;;4937523;29;20020;-69
2022/01/04 09:53:24;;;;;;;2.10;1.20;;;-2.60;99.90;;;;;;4937765;29;20075;-69
2022/01/04 09:55:56;;;;;;;1.20;1.10;;;-2.60;99.90;;;;;;4937543;29;20019;-69
2022/01/04 09:58:24;;;;;;;1.38;1.25;;;-2.60;99.90;;;;;;4937732;29;20103;-69
2022/01/04 10:00:51;;;;;;;1.30;1.20;;;-2.70;99.90;;;;;;4937392;29;20395;-69
2022/01/04 10:03:26;;;;;;;2.13;1.13;;;-2.70;99.90;;;;;;4937506;29;20040;-69
2022/01/04 10:06:09;;;;;;;2.60;1.23;;;-2.70;99.90;;;;;;4937221;29;20024;-70
2022/01/04 10:09:00;;;;;;;2.60;1.23;;;-2.70;99.90;;;;;;4937195;29;20501;-67
2022/01/04 10:11:58;;;;;;;0.90;0.90;;;-2.70;99.90;;;;;;4937368;29;20024;-70
2022/01/04 10:14:35;;;;;;;0.93;0.93;;;-2.80;99.90;;;;;;4936977;29;20128;-69
2022/01/04 10:17:06;;;;;;;1.20;1.00;;;-2.80;99.90;;;;;;4937161;29;20459;-70
2022/01/04 10:19:34;;;;;;;1.85;1.20;;;-2.80;99.90;;;;;;4937010;29;20090;-70
2022/01/04 10:22:34;;;;;;;1.08;0.98;;;-2.80;99.90;;;;;;4937011;29;20032;-68
2022/01/04 10:25:03;;;;;;;1.67;1.30;;;-2.80;99.90;;;;;;4935418;29;20027;-68
2022/01/04 10:27:32;;;;;;;2.83;1.30;;;-2.80;99.90;;;;;;4936876;29;20034;-68
2022/01/04 10:30:15;;;;;;;1.40;1.30;;;-2.80;99.90;;;;;;4936688;29;20034;-67
2022/01/04 10:32:59;;;;;;;4.25;1.38;;;-2.80;99.90;;;;;;4936622;29;20103;-68
2022/01/04 10:35:29;;;;;;;1.83;1.15;;;-2.80;99.90;;;;;;4936694;29;20064;-69
2022/01/04 10:37:57;;;;;;;2.00;1.42;;;-2.80;99.90;;;;;;4936024;29;20476;-69
2022/01/04 10:40:25;;;;;;;1.80;1.48;;;-2.80;99.90;;;;;;4936683;29;20036;-69
2022/01/04 10:42:52;;;;;;;2.45;1.55;;;-2.80;99.90;;;;;;4936634;29;20055;-69
2022/01/04 10:45:28;;;;;;;2.72;1.80;;;-2.90;99.90;;;;;;4936402;29;20035;-67
2022/01/04 10:47:54;;;;;;;3.20;1.98;;;-2.90;99.90;;;;;;4936423;29;20341;-69
2022/01/04 10:50:34;;;;;;;3.33;2.10;;;-2.90;99.90;;;;;;4936783;29;20110;-69
2022/01/04 10:53:01;;;;;;;1.77;1.45;;;-2.90;99.90;;;;;;4936699;29;20039;-69
2022/01/04 10:55:34;;;;;;;2.75;1.42;;;-2.90;99.90;;;;;;4936431;29;20488;-67
2022/01/04 10:58:02;;;;;;;5.07;1.70;;;-2.90;99.90;;;;;;4936341;29;20038;-67
2022/01/04 11:00:29;;;;;;;2.60;1.75;;;-2.90;99.90;;;;;;4936342;29;20027;-69
2022/01/04 11:02:58;;;;;;;2.72;1.60;;;-2.90;99.90;;;;;;4935003;29;20429;-69
2022/01/04 11:05:24;;;;;;;2.30;1.45;;;-2.80;99.90;;;;;;4936334;29;20019;-69
2022/01/04 11:08:02;;;;;;;1.90;1.40;;;-2.80;99.90;;;;;;4936247;29;20391;-67
2022/01/04 11:10:34;;;;;;;1.42;1.20;;;-2.90;99.90;;;;;;4936275;29;20024;-67
2022/01/04 11:13:00;;;;;;;1.30;1.17;;;-2.80;99.90;;;;;;4934930;29;20028;-67
2022/01/04 11:15:27;;;;;;;2.13;1.23;;;-2.90;99.90;;;;;;4936157;29;20019;-67
2022/01/04 11:17:53;;;;;;;1.55;1.25;;;-2.90;99.90;;;;;;4936316;29;20031;-68
2022/01/04 11:20:20;;;;;;;1.65;1.52;;;-2.90;99.90;;;;;;4936155;29;20054;-69
2022/01/04 11:22:47;;;;;;;5.57;1.55;;;-2.90;99.90;;;;;;4935853;29;20123;-69
2022/01/04 11:25:16;;;;;;;1.92;1.40;;;-2.90;99.90;;;;;;4935971;29;20248;-69
2022/01/04 11:27:43;;;;;;;2.15;1.40;;;-2.90;99.90;;;;;;4935788;29;20042;-69
2022/01/04 11:30:29;;;;;;;2.80;1.83;;;-2.90;99.90;;;;;;4935935;29;20066;-69
2022/01/04 11:33:02;;;;;;;1.60;1.50;;;-2.90;99.90;;;;;;4935777;29;20575;-69
2022/01/04 11:35:29;;;;;;;1.20;1.10;;;-3.00;99.90;;;;;;4934988;29;20102;-69
2022/01/04 11:37:57;;;;;;;1.92;1.35;;;-3.00;99.90;;;;;;4935395;29;20043;-72
2022/01/04 11:40:34;;;;;;;2.40;1.38;;;-3.00;99.90;;;;;;4935630;29;20419;-73
2022/01/04 11:43:00;;;;;;;2.90;1.40;;;-3.00;99.90;;;;;;4935252;29;20150;-72
2022/01/04 11:45:44;;;;;;;1.10;1.00;;;-2.90;99.90;;;;;;4935571;29;20064;-70
2022/01/04 11:48:35;;;;;;;1.58;1.27;;;-2.90;99.90;;;;;;4935606;29;20032;-70
2022/01/04 11:51:24;;;;;;;1.25;1.15;;;-3.00;99.90;;;;;;4935337;29;20028;-73
2022/01/04 11:54:14;;;;;;;1.00;1.00;;;-3.00;99.90;;;;;;4935254;29;20032;-73
2022/01/04 11:57:06;;;;;;;2.45;1.30;;;-3.00;99.90;;;;;;4935142;29;20027;-73
2022/01/04 11:59:35;;;;;;;1.73;1.38;;;-3.00;99.90;;;;;;4935527;29;20066;-73
2022/01/04 12:02:31;;;;;;;3.85;1.50;;;-3.10;99.90;;;;;;4934941;29;20396;-73
2022/01/04 12:05:13;;;;;;;5.63;1.40;;;-3.10;99.90;;;;;;4935224;29;20370;-73
2022/01/04 12:07:39;;;;;;;3.47;1.60;;;-3.10;99.90;;;;;;4935474;29;20030;-72
2022/01/04 12:10:22;;;;;;;1.45;1.33;;;-3.10;99.90;;;;;;4935023;29;20391;-73
2022/01/04 12:12:57;;;;;;;2.45;1.88;;;-3.00;99.90;;;;;;4935036;29;20023;-72
2022/01/04 12:15:34;;;;;;;2.13;1.52;;;-3.00;99.90;;;;;;4935058;29;20419;-72
2022/01/04 12:18:27;;;;;;;2.03;1.50;;;-3.00;99.90;;;;;;4934991;29;20034;-73
2022/01/04 12:20:59;;;;;;;2.00;1.60;;;-3.00;99.90;;;;;;4930925;29;20051;-74
2022/01/04 12:23:31;;;;;;;2.78;1.45;;;-3.00;99.90;;;;;;4934979;29;20036;-73
2022/01/04 12:26:03;;;;;;;1.83;1.35;;;-3.00;99.90;;;;;;4934763;29;20035;-73
2022/01/04 12:28:29;;;;;;;2.28;1.52;;;-3.00;99.90;;;;;;4933643;29;20038;-73
2022/01/04 12:31:16;;;;;;;2.35;1.70;;;-3.00;99.90;;;;;;4934796;29;20036;-73
2022/01/04 12:33:50;;;;;;;1.42;1.30;;;-3.00;99.90;;;;;;4934524;29;20058;-73
2022/01/04 12:36:26;;;;;;;1.00;1.00;;;-2.90;99.90;;;;;;4934844;29;20035;-74
2022/01/04 12:38:53;;;;;;;2.85;1.50;;;-3.00;99.90;;;;;;4934656;29;20452;-74
2022/01/04 12:41:19;;;;;;;2.78;1.58;;;-3.00;99.90;;;;;;4934874;29;20036;-73
2022/01/04 12:43:47;;;;;;;4.47;1.77;;;-3.00;99.90;;;;;;4934744;29;20569;-73
2022/01/04 12:46:14;;;;;;;1.52;1.42;;;-3.00;99.90;;;;;;4934771;29;20063;-72
2022/01/04 12:48:48;;;;;;;1.50;1.40;;;-2.20;99.90;;;;;;4938886;29;20082;-72
2022/01/04 12:51:30;;;;;;;1.65;1.30;;;-2.30;99.90;;;;;;4938822;29;20071;-72
2022/01/04 12:54:02;;;;;;;1.70;1.30;;;-2.50;99.90;;;;;;4938663;29;20028;-72
2022/01/04 12:56:29;;;;;;;3.20;1.30;;;-2.60;99.90;;;;;;4938378;29;20537;-72
2022/01/04 12:58:58;;;;;;;3.38;1.45;;;-2.70;99.90;;;;;;4938472;29;20035;-72
2022/01/04 13:01:29;;;;;;;1.92;1.73;;;-2.70;99.90;;;;;;4938487;29;20495;-72
2022/01/04 13:03:56;;;;;;;2.47;1.30;;;-2.80;99.90;;;;;;4938503;29;20036;-72
2022/01/04 13:06:23;;;;;;;3.38;1.67;;;-2.70;99.90;;;;;;4938563;29;20027;-71
2022/01/04 13:08:56;;;;;;;2.33;1.73;;;-2.80;99.90;;;;;;4938248;29;20027;-72
2022/01/04 13:11:23;;;;;;;3.38;1.30;;;-2.80;99.90;;;;;;4938195;29;20028;-71
2022/01/04 13:13:56;;;;;;;1.35;1.23;;;-2.80;99.90;;;;;;4936949;29;20483;-72
2022/01/04 13:16:23;;;;;;;1.65;1.10;;;-2.90;99.90;;;;;;4937986;29;20042;-72
2022/01/04 13:18:49;;;;;;;3.42;1.77;;;-2.60;99.90;;;;;;4939759;29;20512;-74
2022/01/04 13:21:16;;;;;;;1.73;1.45;;;-2.60;99.90;;;;;;4938049;29;20086;-74
2022/01/04 13:23:43;;;;;;;2.80;1.48;;;-2.70;99.90;;;;;;4938283;29;20036;-74
2022/01/04 13:26:09;;;;;;;3.15;1.58;;;-2.70;99.90;;;;;;4937776;29;20039;-74
2022/01/04 13:28:36;;;;;;;2.83;1.80;;;-2.80;99.90;;;;;;4938264;29;20042;-74
2022/01/04 13:31:02;;;;;;;4.53;1.60;;;-2.80;99.90;;;;;;4937435;29;20047;-74
2022/01/04 13:33:28;;;;;;;1.90;1.40;;;-2.50;99.90;;;;;;4938199;29;20118;-73
2022/01/04 13:35:56;;;;;;;3.20;1.85;;;-2.50;99.90;;;;;;4934979;29;20172;-70
2022/01/04 13:38:23;;;;;;;3.60;1.65;;;-2.60;99.90;;;;;;4930424;29;20043;-70
2022/01/04 13:40:51;;;;;;;1.38;1.27;;;-2.60;99.90;;;;;;4937209;29;20024;-70
2022/01/04 13:43:25;;;;;;;1.65;1.40;;;-2.70;99.90;;;;;;4934800;29;20028;-70
2022/01/04 13:45:55;;;;;;;1.38;1.23;;;-2.70;99.90;;;;;;4937167;29;20035;-70
2022/01/04 13:48:31;;;;;;;1.73;1.45;;;-2.80;99.90;;;;;;4937244;29;20023;-70
2022/01/04 13:51:11;;;;;;;1.52;1.20;;;-2.80;99.90;;;;;;4934825;29;20023;-70
2022/01/04 13:53:48;;;;;;;1.60;1.42;;;-2.80;99.90;;;;;;4934827;29;20042;-70
2022/01/04 13:56:18;;;;;;;4.93;1.38;;;-2.80;99.90;;;;;;4937047;29;20046;-70
2022/01/04 13:58:49;;;;;;;1.88;1.27;;;-2.80;99.90;;;;;;4936420;29;20479;-70
2022/01/04 14:01:19;;;;;;;4.38;1.58;;;-2.80;99.90;;;;;;4934628;29;20070;-70